sensor_id;sensor_type;location;lat;lon;timestamp;pressure;altitude;pressure_sealevel;temperature;humidity
70323;BME280;57735;56.264;43.898;2022-12-16T00:00:14;101265.75;;;-4.03;66.64
70323;BME280;57735;56.264;43.898;2022-12-16T00:02:45;101250.81;;;-3.96;66.60
70323;BME280;57735;56.264;43.898;2022-12-16T00:05:16;101240.47;;;-3.99;66.56
70323;BME280;57735;56.264;43.898;2022-12-16T00:07:49;101238.81;;;-4.02;67.07
70323;BME280;57735;56.264;43.898;2022-12-16T00:10:21;101233.56;;;-4.00;66.63
70323;BME280;57735;56.264;43.898;2022-12-16T00:12:51;101238.75;;;-4.00;66.83
70323;BME280;57735;56.264;43.898;2022-12-16T00:15:22;101243.25;;;-4.05;66.66
70323;BME280;57735;56.264;43.898;2022-12-16T00:17:53;101248.47;;;-4.05;66.89
70323;BME280;57735;56.264;43.898;2022-12-16T00:20:26;101241.41;;;-4.02;66.94
70323;BME280;57735;56.264;43.898;2022-12-16T00:22:57;101233.53;;;-3.99;66.85
70323;BME280;57735;56.264;43.898;2022-12-16T00:25:30;101237.06;;;-4.01;67.02
70323;BME280;57735;56.264;43.898;2022-12-16T00:28:03;101227.50;;;-4.01;66.84
70323;BME280;57735;56.264;43.898;2022-12-16T00:30:34;101230.16;;;-4.02;66.70
70323;BME280;57735;56.264;43.898;2022-12-16T00:33:05;101226.59;;;-4.00;66.38
70323;BME280;57735;56.264;43.898;2022-12-16T00:35:36;101226.75;;;-4.04;66.26
70323;BME280;57735;56.264;43.898;2022-12-16T00:38:10;101221.34;;;-3.98;66.48
70323;BME280;57735;56.264;43.898;2022-12-16T00:40:41;101223.03;;;-3.96;66.25
70323;BME280;57735;56.264;43.898;2022-12-16T00:43:12;101216.09;;;-3.97;65.77
70323;BME280;57735;56.264;43.898;2022-12-16T00:45:46;101214.31;;;-3.95;65.93
70323;BME280;57735;56.264;43.898;2022-12-16T00:48:19;101208.22;;;-3.94;65.72
70323;BME280;57735;56.264;43.898;2022-12-16T00:50:53;101212.47;;;-3.90;65.55
70323;BME280;57735;56.264;43.898;2022-12-16T00:53:27;101219.34;;;-3.87;65.53
70323;BME280;57735;56.264;43.898;2022-12-16T00:56:06;101216.59;;;-3.82;65.23
70323;BME280;57735;56.264;43.898;2022-12-16T00:58:38;101202.66;;;-3.81;64.97
70323;BME280;57735;56.264;43.898;2022-12-16T01:01:09;101193.91;;;-3.79;64.91
70323;BME280;57735;56.264;43.898;2022-12-16T01:03:40;101190.34;;;-3.75;64.77
70323;BME280;57735;56.264;43.898;2022-12-16T01:06:14;101185.16;;;-3.76;64.55
70323;BME280;57735;56.264;43.898;2022-12-16T01:08:45;101179.09;;;-3.77;64.56
70323;BME280;57735;56.264;43.898;2022-12-16T01:11:23;101173.03;;;-3.77;64.23
70323;BME280;57735;56.264;43.898;2022-12-16T01:13:54;101154.00;;;-3.79;64.04
70323;BME280;57735;56.264;43.898;2022-12-16T01:16:30;101155.69;;;-3.78;64.22
70323;BME280;57735;56.264;43.898;2022-12-16T01:19:01;101153.00;;;-3.75;64.06
70323;BME280;57735;56.264;43.898;2022-12-16T01:21:32;101159.09;;;-3.75;63.55
70323;BME280;57735;56.264;43.898;2022-12-16T01:24:03;101148.56;;;-3.72;63.75
70323;BME280;57735;56.264;43.898;2022-12-16T01:26:36;101144.06;;;-3.67;63.49
70323;BME280;57735;56.264;43.898;2022-12-16T01:29:08;101144.06;;;-3.67;63.32
70323;BME280;57735;56.264;43.898;2022-12-16T01:31:39;101141.41;;;-3.65;63.57
70323;BME280;57735;56.264;43.898;2022-12-16T01:34:10;101143.22;;;-3.67;63.48
70323;BME280;57735;56.264;43.898;2022-12-16T01:36:43;101133.56;;;-3.64;63.22
70323;BME280;57735;56.264;43.898;2022-12-16T01:39:14;101135.31;;;-3.64;63.25
70323;BME280;57735;56.264;43.898;2022-12-16T01:41:47;101121.50;;;-3.68;63.34
70323;BME280;57735;56.264;43.898;2022-12-16T01:44:21;101126.69;;;-3.66;63.79
70323;BME280;57735;56.264;43.898;2022-12-16T01:47:00;101120.66;;;-3.68;64.30
70323;BME280;57735;56.264;43.898;2022-12-16T01:49:37;101107.72;;;-3.70;63.94
70323;BME280;57735;56.264;43.898;2022-12-16T01:52:15;101117.28;;;-3.70;64.27
70323;BME280;57735;56.264;43.898;2022-12-16T01:55:17;101113.81;;;-3.71;64.97
70323;BME280;57735;56.264;43.898;2022-12-16T01:58:22;101113.81;;;-3.71;65.32
70323;BME280;57735;56.264;43.898;2022-12-16T02:00:53;101105.31;;;-3.77;65.67
70323;BME280;57735;56.264;43.898;2022-12-16T02:03:24;101099.53;;;-3.87;67.09
70323;BME280;57735;56.264;43.898;2022-12-16T02:05:55;101102.22;;;-3.90;67.13
70323;BME280;57735;56.264;43.898;2022-12-16T02:08:28;101093.47;;;-3.88;67.78
70323;BME280;57735;56.264;43.898;2022-12-16T02:14:02;101075.25;;;-3.88;67.65
70323;BME280;57735;56.264;43.898;2022-12-16T02:16:59;101077.94;;;-3.91;67.88
70323;BME280;57735;56.264;43.898;2022-12-16T02:19:58;101072.72;;;-3.91;67.79
70323;BME280;57735;56.264;43.898;2022-12-16T02:25:32;101062.31;;;-3.91;67.74
70323;BME280;57735;56.264;43.898;2022-12-16T02:28:32;101065.66;;;-3.85;68.06
70323;BME280;57735;56.264;43.898;2022-12-16T02:40:01;101041.63;;;-3.95;69.76
70323;BME280;57735;56.264;43.898;2022-12-16T02:42:40;101026.81;;;-3.93;69.32
70323;BME280;57735;56.264;43.898;2022-12-16T02:45:16;101023.22;;;-3.89;68.80
70323;BME280;57735;56.264;43.898;2022-12-16T02:47:47;101022.28;;;-3.87;68.28
70323;BME280;57735;56.264;43.898;2022-12-16T02:50:42;101011.69;;;-3.82;67.99
70323;BME280;57735;56.264;43.898;2022-12-16T02:53:16;101003.69;;;-3.76;67.78
70323;BME280;57735;56.264;43.898;2022-12-16T02:56:14;100997.53;;;-3.73;68.03
70323;BME280;57735;56.264;43.898;2022-12-16T03:01:29;100982.59;;;-3.68;68.21
70323;BME280;57735;56.264;43.898;2022-12-16T03:04:24;100982.56;;;-3.67;67.83
70323;BME280;57735;56.264;43.898;2022-12-16T03:06:58;100974.78;;;-3.68;68.56
70323;BME280;57735;56.264;43.898;2022-12-16T03:09:32;100974.00;;;-3.70;68.59
70323;BME280;57735;56.264;43.898;2022-12-16T03:12:12;100961.84;;;-3.70;68.91
70323;BME280;57735;56.264;43.898;2022-12-16T03:14:45;100955.78;;;-3.70;69.58
70323;BME280;57735;56.264;43.898;2022-12-16T03:17:19;100952.31;;;-3.71;70.14
70323;BME280;57735;56.264;43.898;2022-12-16T03:20:08;100946.41;;;-3.76;70.93
70323;BME280;57735;56.264;43.898;2022-12-16T03:22:44;100946.44;;;-3.77;71.32
70323;BME280;57735;56.264;43.898;2022-12-16T03:25:17;100934.38;;;-3.80;72.30
70323;BME280;57735;56.264;43.898;2022-12-16T03:30:27;100949.34;;;-3.87;74.08
70323;BME280;57735;56.264;43.898;2022-12-16T03:35:43;100916.78;;;-4.00;75.51
70323;BME280;57735;56.264;43.898;2022-12-16T03:38:17;100917.75;;;-4.02;75.47
70323;BME280;57735;56.264;43.898;2022-12-16T03:40:52;100914.16;;;-4.00;75.80
70323;BME280;57735;56.264;43.898;2022-12-16T03:43:23;100895.91;;;-3.98;75.92
70323;BME280;57735;56.264;43.898;2022-12-16T03:46:01;100907.16;;;-3.98;75.90
70323;BME280;57735;56.264;43.898;2022-12-16T03:48:34;100899.34;;;-3.98;76.16
70323;BME280;57735;56.264;43.898;2022-12-16T03:51:07;100893.38;;;-4.01;75.83
70323;BME280;57735;56.264;43.898;2022-12-16T03:53:38;100892.66;;;-4.05;76.27
70323;BME280;57735;56.264;43.898;2022-12-16T03:56:09;100890.00;;;-4.03;76.44
70323;BME280;57735;56.264;43.898;2022-12-16T03:58:40;100889.94;;;-4.02;76.69
70323;BME280;57735;56.264;43.898;2022-12-16T04:01:11;100876.81;;;-3.99;76.26
70323;BME280;57735;56.264;43.898;2022-12-16T04:03:42;100879.34;;;-3.96;75.79
70323;BME280;57735;56.264;43.898;2022-12-16T04:06:13;100869.63;;;-3.91;75.36
70323;BME280;57735;56.264;43.898;2022-12-16T04:08:48;100847.09;;;-3.92;75.17
70323;BME280;57735;56.264;43.898;2022-12-16T04:11:21;100863.47;;;-3.88;75.46
70323;BME280;57735;56.264;43.898;2022-12-16T04:14:11;100856.47;;;-3.86;74.97
70323;BME280;57735;56.264;43.898;2022-12-16T04:17:00;100849.41;;;-3.84;75.19
70323;BME280;57735;56.264;43.898;2022-12-16T04:19:49;100867.59;;;-3.82;75.15
70323;BME280;57735;56.264;43.898;2022-12-16T04:22:40;100865.00;;;-3.82;75.32
70323;BME280;57735;56.264;43.898;2022-12-16T04:25:33;100869.31;;;-3.81;75.45
70323;BME280;57735;56.264;43.898;2022-12-16T04:28:05;100866.56;;;-3.77;75.40
70323;BME280;57735;56.264;43.898;2022-12-16T04:30:36;100867.31;;;-3.73;75.30
70323;BME280;57735;56.264;43.898;2022-12-16T04:33:10;100866.22;;;-3.68;74.96
70323;BME280;57735;56.264;43.898;2022-12-16T04:36:00;100872.19;;;-3.64;74.30
70323;BME280;57735;56.264;43.898;2022-12-16T04:38:51;100864.34;;;-3.63;74.09
70323;BME280;57735;56.264;43.898;2022-12-16T04:41:40;100872.94;;;-3.61;74.68
70323;BME280;57735;56.264;43.898;2022-12-16T04:44:29;100865.88;;;-3.57;74.26
70323;BME280;57735;56.264;43.898;2022-12-16T04:47:18;100865.00;;;-3.56;73.83
70323;BME280;57735;56.264;43.898;2022-12-16T04:50:08;100864.88;;;-3.53;73.95
70323;BME280;57735;56.264;43.898;2022-12-16T04:52:57;100878.53;;;-3.46;73.80
70323;BME280;57735;56.264;43.898;2022-12-16T04:55:46;100874.03;;;-3.41;74.17
70323;BME280;57735;56.264;43.898;2022-12-16T04:58:36;100870.50;;;-3.40;73.65
70323;BME280;57735;56.264;43.898;2022-12-16T05:01:25;100872.97;;;-3.36;73.49
70323;BME280;57735;56.264;43.898;2022-12-16T05:04:14;100870.19;;;-3.31;73.38
70323;BME280;57735;56.264;43.898;2022-12-16T05:07:06;100856.19;;;-3.29;73.31
70323;BME280;57735;56.264;43.898;2022-12-16T05:09:56;100867.53;;;-3.30;73.63
70323;BME280;57735;56.264;43.898;2022-12-16T05:12:45;100855.38;;;-3.31;73.88
70323;BME280;57735;56.264;43.898;2022-12-16T05:15:34;100854.53;;;-3.31;73.94
70323;BME280;57735;56.264;43.898;2022-12-16T05:18:24;100856.28;;;-3.32;73.89
70323;BME280;57735;56.264;43.898;2022-12-16T05:21:13;100856.13;;;-3.27;74.34
70323;BME280;57735;56.264;43.898;2022-12-16T05:24:02;100867.31;;;-3.24;74.21
70323;BME280;57735;56.264;43.898;2022-12-16T05:26:51;100862.06;;;-3.22;74.47
70323;BME280;57735;56.264;43.898;2022-12-16T05:29:41;100857.69;;;-3.22;75.00
70323;BME280;57735;56.264;43.898;2022-12-16T05:32:30;100848.91;;;-3.19;74.68
70323;BME280;57735;56.264;43.898;2022-12-16T05:35:19;100854.00;;;-3.16;74.75
70323;BME280;57735;56.264;43.898;2022-12-16T05:38:08;100851.44;;;-3.18;74.85
70323;BME280;57735;56.264;43.898;2022-12-16T05:41:02;100848.06;;;-3.20;75.00
70323;BME280;57735;56.264;43.898;2022-12-16T05:43:51;100847.22;;;-3.20;74.89
70323;BME280;57735;56.264;43.898;2022-12-16T05:46:41;100845.50;;;-3.21;74.91
70323;BME280;57735;56.264;43.898;2022-12-16T05:49:30;100844.41;;;-3.16;75.26
70323;BME280;57735;56.264;43.898;2022-12-16T05:52:20;100845.16;;;-3.12;75.34
70323;BME280;57735;56.264;43.898;2022-12-16T05:55:09;100854.53;;;-3.06;75.32
70323;BME280;57735;56.264;43.898;2022-12-16T05:57:58;100850.09;;;-3.04;75.20
70323;BME280;57735;56.264;43.898;2022-12-16T06:00:47;100846.41;;;-2.99;75.19
70323;BME280;57735;56.264;43.898;2022-12-16T06:03:36;100863.59;;;-2.93;75.34
70323;BME280;57735;56.264;43.898;2022-12-16T06:06:26;100849.59;;;-2.91;75.28
70323;BME280;57735;56.264;43.898;2022-12-16T06:09:15;100851.25;;;-2.88;75.18
70323;BME280;57735;56.264;43.898;2022-12-16T06:12:05;100849.44;;;-2.86;74.84
70323;BME280;57735;56.264;43.898;2022-12-16T06:14:54;100839.75;;;-2.84;74.79
70323;BME280;57735;56.264;43.898;2022-12-16T06:17:47;100840.38;;;-2.77;75.13
70323;BME280;57735;56.264;43.898;2022-12-16T06:20:36;100844.53;;;-2.72;74.98
70323;BME280;57735;56.264;43.898;2022-12-16T06:23:25;100840.13;;;-2.70;75.13
70323;BME280;57735;56.264;43.898;2022-12-16T06:26:18;100834.69;;;-2.65;75.17
70323;BME280;57735;56.264;43.898;2022-12-16T06:29:08;100832.81;;;-2.62;75.41
70323;BME280;57735;56.264;43.898;2022-12-16T06:31:57;100838.91;;;-2.61;75.42
70323;BME280;57735;56.264;43.898;2022-12-16T06:34:46;100846.56;;;-2.57;75.32
70323;BME280;57735;56.264;43.898;2022-12-16T06:37:36;100840.47;;;-2.57;75.24
70323;BME280;57735;56.264;43.898;2022-12-16T06:40:28;100850.88;;;-2.56;75.33
70323;BME280;57735;56.264;43.898;2022-12-16T06:43:18;100845.66;;;-2.56;75.44
70323;BME280;57735;56.264;43.898;2022-12-16T06:46:07;100847.22;;;-2.52;75.52
70323;BME280;57735;56.264;43.898;2022-12-16T06:48:56;100840.97;;;-2.48;75.78
70323;BME280;57735;56.264;43.898;2022-12-16T06:51:50;100856.28;;;-2.38;75.85
70323;BME280;57735;56.264;43.898;2022-12-16T06:54:39;100845.63;;;-2.34;75.55
70323;BME280;57735;56.264;43.898;2022-12-16T06:57:29;100840.28;;;-2.31;75.37
70323;BME280;57735;56.264;43.898;2022-12-16T07:00:18;100853.19;;;-2.26;75.38
70323;BME280;57735;56.264;43.898;2022-12-16T07:03:07;100839.94;;;-2.22;74.93
70323;BME280;57735;56.264;43.898;2022-12-16T07:05:57;100845.16;;;-2.22;75.07
70323;BME280;57735;56.264;43.898;2022-12-16T07:08:46;100847.78;;;-2.22;74.88
70323;BME280;57735;56.264;43.898;2022-12-16T07:11:35;100841.09;;;-2.29;75.13
70323;BME280;57735;56.264;43.898;2022-12-16T07:14:25;100846.31;;;-2.29;75.41
70323;BME280;57735;56.264;43.898;2022-12-16T07:17:14;100836.72;;;-2.28;75.41
70323;BME280;57735;56.264;43.898;2022-12-16T07:20:04;100851.53;;;-2.29;75.40
70323;BME280;57735;56.264;43.898;2022-12-16T07:22:53;100845.47;;;-2.29;75.10
70323;BME280;57735;56.264;43.898;2022-12-16T07:25:45;100852.44;;;-2.30;75.34
70323;BME280;57735;56.264;43.898;2022-12-16T07:28:34;100850.69;;;-2.29;75.06
70323;BME280;57735;56.264;43.898;2022-12-16T07:31:23;100846.38;;;-2.30;74.83
70323;BME280;57735;56.264;43.898;2022-12-16T07:34:13;100846.25;;;-2.27;74.71
70323;BME280;57735;56.264;43.898;2022-12-16T07:37:03;100848.63;;;-2.21;74.96
70323;BME280;57735;56.264;43.898;2022-12-16T07:39:52;100849.44;;;-2.19;74.41
70323;BME280;57735;56.264;43.898;2022-12-16T07:42:45;100841.72;;;-2.22;74.18
70323;BME280;57735;56.264;43.898;2022-12-16T07:45:35;100839.88;;;-2.20;73.96
70323;BME280;57735;56.264;43.898;2022-12-16T07:48:24;100838.19;;;-2.21;73.93
70323;BME280;57735;56.264;43.898;2022-12-16T07:51:13;100849.53;;;-2.22;73.69
70323;BME280;57735;56.264;43.898;2022-12-16T07:54:03;100847.84;;;-2.23;73.55
70323;BME280;57735;56.264;43.898;2022-12-16T07:56:52;100843.34;;;-2.20;73.71
70323;BME280;57735;56.264;43.898;2022-12-16T07:59:41;100835.47;;;-2.18;73.29
70323;BME280;57735;56.264;43.898;2022-12-16T08:02:31;100844.06;;;-2.16;73.68
70323;BME280;57735;56.264;43.898;2022-12-16T08:05:23;100845.75;;;-2.15;73.20
70323;BME280;57735;56.264;43.898;2022-12-16T08:08:12;100847.78;;;-2.22;72.78
70323;BME280;57735;56.264;43.898;2022-12-16T08:11:01;100849.72;;;-2.27;72.67
70323;BME280;57735;56.264;43.898;2022-12-16T08:13:50;100848.97;;;-2.30;72.69
70323;BME280;57735;56.264;43.898;2022-12-16T08:16:39;100843.13;;;-2.35;72.82
70323;BME280;57735;56.264;43.898;2022-12-16T08:19:29;100841.25;;;-2.33;72.88
70323;BME280;57735;56.264;43.898;2022-12-16T08:22:21;100842.97;;;-2.32;73.07
70323;BME280;57735;56.264;43.898;2022-12-16T08:25:10;100839.44;;;-2.31;72.88
70323;BME280;57735;56.264;43.898;2022-12-16T08:27:59;100856.94;;;-2.33;72.98
70323;BME280;57735;56.264;43.898;2022-12-16T08:30:50;100861.25;;;-2.32;72.91
70323;BME280;57735;56.264;43.898;2022-12-16T08:33:39;100851.84;;;-2.36;72.87
70323;BME280;57735;56.264;43.898;2022-12-16T08:36:28;100852.25;;;-2.25;72.70
70323;BME280;57735;56.264;43.898;2022-12-16T08:39:18;100848.75;;;-2.24;72.47
70323;BME280;57735;56.264;43.898;2022-12-16T08:42:08;100859.31;;;-2.27;72.55
70323;BME280;57735;56.264;43.898;2022-12-16T08:44:57;100857.53;;;-2.27;72.33
70323;BME280;57735;56.264;43.898;2022-12-16T08:47:46;100859.25;;;-2.26;72.32
70323;BME280;57735;56.264;43.898;2022-12-16T08:50:35;100860.63;;;-2.17;72.21
70323;BME280;57735;56.264;43.898;2022-12-16T08:53:25;100861.56;;;-2.18;71.94
70323;BME280;57735;56.264;43.898;2022-12-16T08:56:14;100858.34;;;-2.25;72.24
70323;BME280;57735;56.264;43.898;2022-12-16T08:59:04;100862.53;;;-2.21;72.38
70323;BME280;57735;56.264;43.898;2022-12-16T09:01:53;100863.44;;;-2.22;72.19
70323;BME280;57735;56.264;43.898;2022-12-16T09:04:42;100863.38;;;-2.20;72.07
70323;BME280;57735;56.264;43.898;2022-12-16T09:07:31;100858.00;;;-2.17;71.80
70323;BME280;57735;56.264;43.898;2022-12-16T09:10:20;100850.81;;;-2.11;71.71
70323;BME280;57735;56.264;43.898;2022-12-16T09:13:12;100860.03;;;-2.02;71.26
70323;BME280;57735;56.264;43.898;2022-12-16T09:16:02;100867.72;;;-1.99;71.30
70323;BME280;57735;56.264;43.898;2022-12-16T09:18:51;100870.16;;;-1.94;71.53
70323;BME280;57735;56.264;43.898;2022-12-16T09:21:40;100877.09;;;-1.93;71.07
70323;BME280;57735;56.264;43.898;2022-12-16T09:24:31;100872.84;;;-1.96;70.92
70323;BME280;57735;56.264;43.898;2022-12-16T09:27:22;100878.72;;;-1.91;71.12
70323;BME280;57735;56.264;43.898;2022-12-16T09:30:11;100876.91;;;-1.89;71.03
70323;BME280;57735;56.264;43.898;2022-12-16T09:33:01;100882.00;;;-1.86;71.34
70323;BME280;57735;56.264;43.898;2022-12-16T09:35:50;100884.88;;;-1.92;71.14
70323;BME280;57735;56.264;43.898;2022-12-16T09:38:40;100884.13;;;-1.95;72.11
70323;BME280;57735;56.264;43.898;2022-12-16T09:41:41;100887.59;;;-1.95;72.18
70323;BME280;57735;56.264;43.898;2022-12-16T09:50:41;100900.66;;;-1.95;72.12
70323;BME280;57735;56.264;43.898;2022-12-16T09:53:36;100903.25;;;-1.95;72.36
70323;BME280;57735;56.264;43.898;2022-12-16T09:56:32;100905.19;;;-2.00;72.36
70323;BME280;57735;56.264;43.898;2022-12-16T09:59:29;100910.38;;;-1.98;72.73
70323;BME280;57735;56.264;43.898;2022-12-16T10:02:23;100911.09;;;-1.95;72.79
70323;BME280;57735;56.264;43.898;2022-12-16T10:05:18;100907.59;;;-1.94;72.66
70323;BME280;57735;56.264;43.898;2022-12-16T10:11:08;100921.19;;;-1.86;72.57
70323;BME280;57735;56.264;43.898;2022-12-16T10:14:04;100915.59;;;-1.77;72.62
70323;BME280;57735;56.264;43.898;2022-12-16T10:17:11;100908.31;;;-1.68;72.10
70323;BME280;57735;56.264;43.898;2022-12-16T10:23:23;100924.44;;;-1.59;72.07
70323;BME280;57735;56.264;43.898;2022-12-16T10:29:18;100925.41;;;-1.61;72.19
70323;BME280;57735;56.264;43.898;2022-12-16T10:32:59;100932.28;;;-1.59;72.04
70323;BME280;57735;56.264;43.898;2022-12-16T10:35:27;100940.00;;;-1.56;71.66
70323;BME280;57735;56.264;43.898;2022-12-16T10:38:39;100947.72;;;-1.53;71.76
70323;BME280;57735;56.264;43.898;2022-12-16T10:41:38;100939.81;;;-1.51;71.62
70323;BME280;57735;56.264;43.898;2022-12-16T10:44:52;100944.19;;;-1.52;71.60
70323;BME280;57735;56.264;43.898;2022-12-16T10:47:42;100952.88;;;-1.51;71.79
70323;BME280;57735;56.264;43.898;2022-12-16T10:50:34;100963.47;;;-1.54;71.86
70323;BME280;57735;56.264;43.898;2022-12-16T10:53:26;100965.97;;;-1.51;71.93
70323;BME280;57735;56.264;43.898;2022-12-16T10:56:48;100972.22;;;-1.55;71.99
70323;BME280;57735;56.264;43.898;2022-12-16T10:59:40;100979.28;;;-1.57;72.08
70323;BME280;57735;56.264;43.898;2022-12-16T11:02:29;100979.28;;;-1.57;72.05
70323;BME280;57735;56.264;43.898;2022-12-16T11:05:29;100987.16;;;-1.59;72.21
70323;BME280;57735;56.264;43.898;2022-12-16T11:11:23;100984.31;;;-1.53;71.95
70323;BME280;57735;56.264;43.898;2022-12-16T11:17:23;100995.06;;;-1.38;71.68
70323;BME280;57735;56.264;43.898;2022-12-16T11:20:19;101000.28;;;-1.38;71.48
70323;BME280;57735;56.264;43.898;2022-12-16T11:23:16;101012.06;;;-1.50;71.67
70323;BME280;57735;56.264;43.898;2022-12-16T11:26:11;101011.84;;;-1.44;71.92
70323;BME280;57735;56.264;43.898;2022-12-16T11:29:20;101021.31;;;-1.42;71.51
70323;BME280;57735;56.264;43.898;2022-12-16T11:32:21;101024.28;;;-1.51;71.93
70323;BME280;57735;56.264;43.898;2022-12-16T11:35:16;101020.25;;;-1.36;71.68
70323;BME280;57735;56.264;43.898;2022-12-16T11:38:14;101026.22;;;-1.34;71.20
70323;BME280;57735;56.264;43.898;2022-12-16T11:41:07;101030.31;;;-1.27;70.68
70323;BME280;57735;56.264;43.898;2022-12-16T11:43:59;101027.13;;;-1.13;70.96
70323;BME280;57735;56.264;43.898;2022-12-16T11:46:50;101034.84;;;-1.10;70.20
70323;BME280;57735;56.264;43.898;2022-12-16T11:49:39;101043.16;;;-1.21;70.54
70323;BME280;57735;56.264;43.898;2022-12-16T11:52:30;101057.72;;;-1.15;70.00
70323;BME280;57735;56.264;43.898;2022-12-16T11:55:26;101063.44;;;-1.27;70.26
70323;BME280;57735;56.264;43.898;2022-12-16T12:01:36;101079.31;;;-1.32;69.90
70323;BME280;57735;56.264;43.898;2022-12-16T12:04:28;101095.00;;;-1.32;69.91
70323;BME280;57735;56.264;43.898;2022-12-16T12:08:11;101099.59;;;-1.37;69.78
70323;BME280;57735;56.264;43.898;2022-12-16T12:22:45;101136.00;;;-1.32;69.04
70323;BME280;57735;56.264;43.898;2022-12-16T12:25:41;101136.69;;;-1.27;68.76
70323;BME280;57735;56.264;43.898;2022-12-16T12:28:54;101149.69;;;-1.26;68.73
70323;BME280;57735;56.264;43.898;2022-12-16T12:32:01;101153.09;;;-1.24;69.02
70323;BME280;57735;56.264;43.898;2022-12-16T12:38:56;101172.88;;;-1.17;68.79
70323;BME280;57735;56.264;43.898;2022-12-16T12:51:50;101203.41;;;-1.17;69.15
70323;BME280;57735;56.264;43.898;2022-12-16T12:54:48;101201.63;;;-1.17;68.91
70323;BME280;57735;56.264;43.898;2022-12-16T12:57:42;101213.63;;;-1.11;68.89
70323;BME280;57735;56.264;43.898;2022-12-16T13:00:40;101221.50;;;-1.11;68.68
70323;BME280;57735;56.264;43.898;2022-12-16T13:06:35;101233.53;;;-1.07;68.25
70323;BME280;57735;56.264;43.898;2022-12-16T13:09:36;101245.78;;;-1.08;68.17
70323;BME280;57735;56.264;43.898;2022-12-16T13:15:31;101258.06;;;-1.10;68.12
70323;BME280;57735;56.264;43.898;2022-12-16T13:18:29;101259.81;;;-1.10;67.28
70323;BME280;57735;56.264;43.898;2022-12-16T13:24:42;101275.69;;;-1.15;65.46
70323;BME280;57735;56.264;43.898;2022-12-16T13:27:49;101284.31;;;-1.13;64.02
70323;BME280;57735;56.264;43.898;2022-12-16T13:30:57;101293.03;;;-1.12;63.78
70323;BME280;57735;56.264;43.898;2022-12-16T13:33:51;101299.97;;;-1.11;63.65
70323;BME280;57735;56.264;43.898;2022-12-16T13:36:43;101305.25;;;-1.13;62.92
70323;BME280;57735;56.264;43.898;2022-12-16T13:39:33;101310.50;;;-1.13;62.97
70323;BME280;57735;56.264;43.898;2022-12-16T13:45:38;101313.81;;;-1.08;63.19
70323;BME280;57735;56.264;43.898;2022-12-16T13:48:30;101323.50;;;-1.11;63.45
70323;BME280;57735;56.264;43.898;2022-12-16T13:54:45;101336.66;;;-1.13;64.09
70323;BME280;57735;56.264;43.898;2022-12-16T13:57:40;101352.25;;;-1.10;64.00
70323;BME280;57735;56.264;43.898;2022-12-16T14:00:33;101349.47;;;-1.05;64.06
70323;BME280;57735;56.264;43.898;2022-12-16T14:03:46;101347.69;;;-1.04;63.94
70323;BME280;57735;56.264;43.898;2022-12-16T14:06:38;101371.25;;;-1.04;63.73
70323;BME280;57735;56.264;43.898;2022-12-16T14:09:40;101369.44;;;-1.02;63.23
70323;BME280;57735;56.264;43.898;2022-12-16T14:13:04;101371.25;;;-1.04;63.15
70323;BME280;57735;56.264;43.898;2022-12-16T14:16:12;101375.72;;;-1.08;62.80
70323;BME280;57735;56.264;43.898;2022-12-16T14:19:36;101387.16;;;-1.11;63.48
70323;BME280;57735;56.264;43.898;2022-12-16T14:25:40;101404.09;;;-1.21;63.30
70323;BME280;57735;56.264;43.898;2022-12-16T14:28:32;101419.41;;;-1.35;63.43
70323;BME280;57735;56.264;43.898;2022-12-16T14:34:20;101411.97;;;-1.47;63.62
70323;BME280;57735;56.264;43.898;2022-12-16T14:37:20;101434.69;;;-1.49;63.69
70323;BME280;57735;56.264;43.898;2022-12-16T14:40:22;101428.78;;;-1.54;63.64
70323;BME280;57735;56.264;43.898;2022-12-16T14:46:02;101440.25;;;-1.58;63.36
70323;BME280;57735;56.264;43.898;2022-12-16T14:48:51;101457.72;;;-1.60;62.47
70323;BME280;57735;56.264;43.898;2022-12-16T14:51:49;101455.25;;;-1.65;62.79
70323;BME280;57735;56.264;43.898;2022-12-16T14:54:45;101463.22;;;-1.68;62.46
70323;BME280;57735;56.264;43.898;2022-12-16T14:57:34;101471.13;;;-1.69;61.65
70323;BME280;57735;56.264;43.898;2022-12-16T15:00:23;101482.59;;;-1.75;61.61
70323;BME280;57735;56.264;43.898;2022-12-16T15:03:32;101478.47;;;-1.82;61.28
70323;BME280;57735;56.264;43.898;2022-12-16T15:06:26;101489.22;;;-1.91;61.26
70323;BME280;57735;56.264;43.898;2022-12-16T15:09:25;101493.75;;;-1.98;61.01
70323;BME280;57735;56.264;43.898;2022-12-16T15:12:22;101489.44;;;-1.99;61.20
70323;BME280;57735;56.264;43.898;2022-12-16T15:15:18;101499.06;;;-2.01;61.09
70323;BME280;57735;56.264;43.898;2022-12-16T15:18:17;101502.63;;;-2.02;61.11
70323;BME280;57735;56.264;43.898;2022-12-16T15:21:07;101517.53;;;-2.05;60.55
70323;BME280;57735;56.264;43.898;2022-12-16T15:23:57;101517.75;;;-2.13;60.52
70323;BME280;57735;56.264;43.898;2022-12-16T15:26:48;101521.25;;;-2.14;60.63
70323;BME280;57735;56.264;43.898;2022-12-16T15:29:40;101537.00;;;-2.17;60.80
70323;BME280;57735;56.264;43.898;2022-12-16T15:32:33;101537.19;;;-2.23;60.88
70323;BME280;57735;56.264;43.898;2022-12-16T15:41:04;101574.84;;;-2.32;61.27
70323;BME280;57735;56.264;43.898;2022-12-16T15:43:54;101565.34;;;-2.34;61.26
70323;BME280;57735;56.264;43.898;2022-12-16T15:46:46;101582.84;;;-2.36;61.18
70323;BME280;57735;56.264;43.898;2022-12-16T15:49:38;101581.97;;;-2.37;61.76
70323;BME280;57735;56.264;43.898;2022-12-16T15:52:42;101591.56;;;-2.37;61.59
70323;BME280;57735;56.264;43.898;2022-12-16T15:55:34;101601.19;;;-2.39;61.70
70323;BME280;57735;56.264;43.898;2022-12-16T16:01:22;101596.78;;;-2.37;62.03
70323;BME280;57735;56.264;43.898;2022-12-16T16:04:28;101596.78;;;-2.37;62.05
70323;BME280;57735;56.264;43.898;2022-12-16T16:07:20;101605.44;;;-2.35;62.36
70323;BME280;57735;56.264;43.898;2022-12-16T16:10:16;101605.34;;;-2.32;61.95
70323;BME280;57735;56.264;43.898;2022-12-16T16:13:06;101616.69;;;-2.33;61.98